sensor_id;sensor_type;location;lat;lon;timestamp;pressure;altitude;pressure_sealevel;temperature;humidity
30073;BME280;16897;52.422;13.678;2023-07-13T00:00:23;100864.31;;;24.35;34.22
30073;BME280;16897;52.422;13.678;2023-07-13T00:04:25;100857.16;;;24.27;34.20
30073;BME280;16897;52.422;13.678;2023-07-13T00:08:30;100875.84;;;24.27;34.54
30073;BME280;16897;52.422;13.678;2023-07-13T00:12:35;100871.56;;;24.18;34.46
30073;BME280;16897;52.422;13.678;2023-07-13T00:16:38;100873.06;;;24.13;34.68
30073;BME280;16897;52.422;13.678;2023-07-13T00:20:42;100886.25;;;24.14;34.57
30073;BME280;16897;52.422;13.678;2023-07-13T00:24:44;100879.25;;;24.05;34.61
30073;BME280;16897;52.422;13.678;2023-07-13T00:28:46;100893.06;;;24.08;34.75
30073;BME280;16897;52.422;13.678;2023-07-13T00:32:48;100896.25;;;24.04;35.02
30073;BME280;16897;52.422;13.678;2023-07-13T00:36:50;100897.44;;;24.01;34.91
30073;BME280;16897;52.422;13.678;2023-07-13T00:40:52;100866.94;;;23.79;34.79
30073;BME280;16897;52.422;13.678;2023-07-13T00:49:27;100899.28;;;23.84;35.08
30073;BME280;16897;52.422;13.678;2023-07-13T00:53:31;100906.63;;;23.82;34.84
30073;BME280;16897;52.422;13.678;2023-07-13T00:57:34;100890.72;;;23.64;34.82
30073;BME280;16897;52.422;13.678;2023-07-13T01:01:36;100877.38;;;23.40;35.05
30073;BME280;16897;52.422;13.678;2023-07-13T01:05:38;100910.88;;;23.51;34.70
30073;BME280;16897;52.422;13.678;2023-07-13T01:09:40;100913.41;;;23.44;35.09
30073;BME280;16897;52.422;13.678;2023-07-13T01:13:42;100914.34;;;23.35;35.17
30073;BME280;16897;52.422;13.678;2023-07-13T01:17:44;100881.81;;;23.07;35.00
30073;BME280;16897;52.422;13.678;2023-07-13T01:21:50;100902.84;;;23.18;35.38
30073;BME280;16897;52.422;13.678;2023-07-13T01:25:52;100905.50;;;23.18;35.39
30073;BME280;16897;52.422;13.678;2023-07-13T01:29:54;100907.47;;;23.16;35.11
30073;BME280;16897;52.422;13.678;2023-07-13T01:34:04;100893.44;;;22.97;35.09
30073;BME280;16897;52.422;13.678;2023-07-13T01:38:06;100917.94;;;23.01;35.22
30073;BME280;16897;52.422;13.678;2023-07-13T01:42:09;100900.34;;;22.82;35.51
30073;BME280;16897;52.422;13.678;2023-07-13T01:46:11;100886.66;;;22.69;35.26
30073;BME280;16897;52.422;13.678;2023-07-13T01:50:12;100887.31;;;22.71;35.55
30073;BME280;16897;52.422;13.678;2023-07-13T01:54:14;100896.84;;;22.82;35.47
30073;BME280;16897;52.422;13.678;2023-07-13T01:58:16;100896.50;;;22.77;35.57
30073;BME280;16897;52.422;13.678;2023-07-13T02:02:18;100881.97;;;22.71;35.90
30073;BME280;16897;52.422;13.678;2023-07-13T02:06:19;100890.16;;;22.69;35.74
30073;BME280;16897;52.422;13.678;2023-07-13T02:10:23;100902.31;;;22.72;35.89
30073;BME280;16897;52.422;13.678;2023-07-13T02:14:25;100904.97;;;22.72;35.90
30073;BME280;16897;52.422;13.678;2023-07-13T02:18:26;100888.97;;;22.64;35.95
30073;BME280;16897;52.422;13.678;2023-07-13T02:22:28;100902.09;;;22.65;35.97
30073;BME280;16897;52.422;13.678;2023-07-13T02:26:32;100878.75;;;22.51;36.12
30073;BME280;16897;52.422;13.678;2023-07-13T02:30:34;100876.06;;;22.51;36.11
30073;BME280;16897;52.422;13.678;2023-07-13T02:34:36;100863.38;;;22.37;35.97
30073;BME280;16897;52.422;13.678;2023-07-13T02:38:39;100880.84;;;22.39;36.28
30073;BME280;16897;52.422;13.678;2023-07-13T02:42:40;100905.44;;;22.41;36.23
30073;BME280;16897;52.422;13.678;2023-07-13T02:46:42;100882.09;;;22.27;35.94
30073;BME280;16897;52.422;13.678;2023-07-13T02:50:45;100860.31;;;22.05;36.19
30073;BME280;16897;52.422;13.678;2023-07-13T02:54:46;100854.56;;;21.92;36.21
30073;BME280;16897;52.422;13.678;2023-07-13T02:58:48;100898.09;;;22.09;36.14
30073;BME280;16897;52.422;13.678;2023-07-13T03:02:49;100920.34;;;22.08;36.26
30073;BME280;16897;52.422;13.678;2023-07-13T03:06:51;100901.09;;;21.88;36.46
30073;BME280;16897;52.422;13.678;2023-07-13T03:11:07;100897.69;;;21.78;36.33
30073;BME280;16897;52.422;13.678;2023-07-13T03:15:12;100903.13;;;21.76;36.55
30073;BME280;16897;52.422;13.678;2023-07-13T03:19:18;100876.72;;;21.57;36.43
30073;BME280;16897;52.422;13.678;2023-07-13T03:23:25;100920.53;;;21.71;36.50
30073;BME280;16897;52.422;13.678;2023-07-13T03:27:26;100912.78;;;21.59;36.51
30073;BME280;16897;52.422;13.678;2023-07-13T03:31:29;100898.72;;;21.49;36.59
30073;BME280;16897;52.422;13.678;2023-07-13T03:35:32;100920.06;;;21.57;36.69
30073;BME280;16897;52.422;13.678;2023-07-13T03:39:34;100928.91;;;21.58;36.82
30073;BME280;16897;52.422;13.678;2023-07-13T03:43:36;100926.38;;;21.56;36.91
30073;BME280;16897;52.422;13.678;2023-07-13T03:47:40;100933.44;;;21.48;36.76
30073;BME280;16897;52.422;13.678;2023-07-13T03:51:47;100933.66;;;21.54;36.68
30073;BME280;16897;52.422;13.678;2023-07-13T03:55:48;100954.25;;;21.52;37.09
30073;BME280;16897;52.422;13.678;2023-07-13T03:59:50;100943.06;;;21.49;37.10
30073;BME280;16897;52.422;13.678;2023-07-13T04:03:52;100924.13;;;21.34;37.16
30073;BME280;16897;52.422;13.678;2023-07-13T04:07:56;100933.69;;;21.27;37.24
30073;BME280;16897;52.422;13.678;2023-07-13T04:11:58;100943.19;;;21.29;36.96
30073;BME280;16897;52.422;13.678;2023-07-13T04:16:02;100961.34;;;21.34;37.06
30073;BME280;16897;52.422;13.678;2023-07-13T04:20:05;100959.66;;;21.33;36.96
30073;BME280;16897;52.422;13.678;2023-07-13T04:24:06;100947.97;;;21.26;37.09
30073;BME280;16897;52.422;13.678;2023-07-13T04:28:09;100958.28;;;21.29;37.27
30073;BME280;16897;52.422;13.678;2023-07-13T04:32:11;100964.41;;;21.39;37.31
30073;BME280;16897;52.422;13.678;2023-07-13T04:36:12;100933.69;;;21.27;37.18
30073;BME280;16897;52.422;13.678;2023-07-13T04:40:14;100963.00;;;21.35;37.25
30073;BME280;16897;52.422;13.678;2023-07-13T04:44:15;100937.47;;;21.24;37.84
30073;BME280;16897;52.422;13.678;2023-07-13T04:48:18;100975.28;;;21.46;37.33
30073;BME280;16897;52.422;13.678;2023-07-13T04:52:20;100977.63;;;21.49;37.34
30073;BME280;16897;52.422;13.678;2023-07-13T04:56:22;100969.81;;;21.47;37.50
30073;BME280;16897;52.422;13.678;2023-07-13T05:00:24;100991.56;;;21.60;37.83
30073;BME280;16897;52.422;13.678;2023-07-13T05:04:26;100992.59;;;21.68;37.72
30073;BME280;16897;52.422;13.678;2023-07-13T05:08:27;100995.22;;;21.77;37.60
30073;BME280;16897;52.422;13.678;2023-07-13T05:12:29;100984.78;;;21.84;37.64
30073;BME280;16897;52.422;13.678;2023-07-13T05:16:31;100979.03;;;21.88;37.66
30073;BME280;16897;52.422;13.678;2023-07-13T05:20:33;101000.00;;;22.09;37.94
30073;BME280;16897;52.422;13.678;2023-07-13T05:24:35;101004.41;;;22.19;38.10
30073;BME280;16897;52.422;13.678;2023-07-13T05:28:37;100992.94;;;22.18;38.12
30073;BME280;16897;52.422;13.678;2023-07-13T05:32:39;100969.22;;;22.07;38.14
30073;BME280;16897;52.422;13.678;2023-07-13T05:36:41;101002.72;;;22.36;37.83
30073;BME280;16897;52.422;13.678;2023-07-13T05:40:43;100985.53;;;22.30;37.99
30073;BME280;16897;52.422;13.678;2023-07-13T05:44:45;100977.78;;;22.37;38.06
30073;BME280;16897;52.422;13.678;2023-07-13T05:48:46;101005.63;;;22.68;38.08
30073;BME280;16897;52.422;13.678;2023-07-13T05:52:49;101019.38;;;22.90;38.18
30073;BME280;16897;52.422;13.678;2023-07-13T05:56:50;101007.19;;;23.05;38.61
30073;BME280;16897;52.422;13.678;2023-07-13T06:01:03;101004.22;;;23.16;38.48
30073;BME280;16897;52.422;13.678;2023-07-13T06:05:05;100999.81;;;23.33;38.56
30073;BME280;16897;52.422;13.678;2023-07-13T06:09:07;101011.03;;;23.53;38.42
30073;BME280;16897;52.422;13.678;2023-07-13T06:13:09;101002.72;;;23.64;38.62
30073;BME280;16897;52.422;13.678;2023-07-13T06:17:10;100990.63;;;23.78;38.72
30073;BME280;16897;52.422;13.678;2023-07-13T06:21:14;100992.13;;;23.97;38.53
30073;BME280;16897;52.422;13.678;2023-07-13T06:25:16;101009.00;;;24.22;38.63
30073;BME280;16897;52.422;13.678;2023-07-13T06:29:18;101011.47;;;24.40;38.54
30073;BME280;16897;52.422;13.678;2023-07-13T06:33:20;101000.47;;;24.51;38.55
30073;BME280;16897;52.422;13.678;2023-07-13T06:37:22;101006.97;;;24.73;38.65
30073;BME280;16897;52.422;13.678;2023-07-13T06:41:24;100994.94;;;24.78;38.76
30073;BME280;16897;52.422;13.678;2023-07-13T06:45:27;101008.91;;;24.96;38.67
30073;BME280;16897;52.422;13.678;2023-07-13T06:49:29;101014.38;;;25.03;38.67
30073;BME280;16897;52.422;13.678;2023-07-13T06:53:31;101000.88;;;25.04;38.01
30073;BME280;16897;52.422;13.678;2023-07-13T06:57:32;101009.69;;;25.13;38.55
30073;BME280;16897;52.422;13.678;2023-07-13T07:01:34;101011.34;;;25.14;38.22
30073;BME280;16897;52.422;13.678;2023-07-13T07:05:36;100990.66;;;25.08;38.02
30073;BME280;16897;52.422;13.678;2023-07-13T07:09:37;101007.19;;;25.20;38.49
30073;BME280;16897;52.422;13.678;2023-07-13T07:13:39;101007.16;;;25.28;38.47
30073;BME280;16897;52.422;13.678;2023-07-13T07:17:41;100983.41;;;25.25;38.45
30073;BME280;16897;52.422;13.678;2023-07-13T07:21:43;100985.41;;;25.31;38.22
30073;BME280;16897;52.422;13.678;2023-07-13T07:25:45;101019.69;;;25.58;38.11
30073;BME280;16897;52.422;13.678;2023-07-13T07:29:46;101014.13;;;25.68;38.46
30073;BME280;16897;52.422;13.678;2023-07-13T07:33:48;101009.91;;;25.74;38.22
30073;BME280;16897;52.422;13.678;2023-07-13T07:37:51;101027.91;;;25.88;38.29
30073;BME280;16897;52.422;13.678;2023-07-13T07:41:52;101020.47;;;25.98;38.45
30073;BME280;16897;52.422;13.678;2023-07-13T07:45:54;101012.09;;;26.01;38.22
30073;BME280;16897;52.422;13.678;2023-07-13T07:49:55;101023.03;;;26.15;37.91
30073;BME280;16897;52.422;13.678;2023-07-13T07:53:57;101026.22;;;26.33;37.90
30073;BME280;16897;52.422;13.678;2023-07-13T07:57:59;101021.44;;;26.43;38.35
30073;BME280;16897;52.422;13.678;2023-07-13T08:02:00;101027.97;;;26.64;38.28
30073;BME280;16897;52.422;13.678;2023-07-13T08:06:04;101027.81;;;26.80;37.83
30073;BME280;16897;52.422;13.678;2023-07-13T08:10:06;101006.66;;;26.85;38.01
30073;BME280;16897;52.422;13.678;2023-07-13T08:14:08;101019.31;;;27.06;37.72
30073;BME280;16897;52.422;13.678;2023-07-13T08:18:10;101023.69;;;27.22;37.97
30073;BME280;16897;52.422;13.678;2023-07-13T08:22:11;101029.94;;;27.44;37.80
30073;BME280;16897;52.422;13.678;2023-07-13T08:26:13;101030.91;;;27.58;38.26
30073;BME280;16897;52.422;13.678;2023-07-13T08:30:14;101036.69;;;27.76;38.08
30073;BME280;16897;52.422;13.678;2023-07-13T08:34:16;101043.50;;;27.94;37.53
30073;BME280;16897;52.422;13.678;2023-07-13T08:38:18;101030.59;;;28.04;37.78
30073;BME280;16897;52.422;13.678;2023-07-13T08:42:27;101032.94;;;28.14;37.64
30073;BME280;16897;52.422;13.678;2023-07-13T08:46:35;101024.53;;;28.17;37.55
30073;BME280;16897;52.422;13.678;2023-07-13T08:51:00;101026.00;;;28.19;37.64
30073;BME280;16897;52.422;13.678;2023-07-13T08:55:11;101042.47;;;28.16;37.22
30073;BME280;16897;52.422;13.678;2023-07-13T08:59:15;101049.69;;;28.16;37.33
30073;BME280;16897;52.422;13.678;2023-07-13T09:03:22;101047.66;;;28.18;37.42
30073;BME280;16897;52.422;13.678;2023-07-13T09:16:02;101040.53;;;28.32;37.20
30073;BME280;16897;52.422;13.678;2023-07-13T09:20:17;101048.59;;;28.53;37.09
30073;BME280;16897;52.422;13.678;2023-07-13T09:24:36;101042.44;;;28.59;37.09
30073;BME280;16897;52.422;13.678;2023-07-13T09:29:06;101040.41;;;28.61;36.96
30073;BME280;16897;52.422;13.678;2023-07-13T09:33:03;101038.75;;;28.60;36.94
30073;BME280;16897;52.422;13.678;2023-07-13T09:37:05;101038.34;;;28.63;36.79
30073;BME280;16897;52.422;13.678;2023-07-13T09:41:31;101047.72;;;28.74;36.80
30073;BME280;16897;52.422;13.678;2023-07-13T09:45:36;101042.78;;;28.78;36.69
30073;BME280;16897;52.422;13.678;2023-07-13T09:49:38;101028.09;;;28.74;36.79
30073;BME280;16897;52.422;13.678;2023-07-13T09:53:43;101044.06;;;28.82;36.56
30073;BME280;16897;52.422;13.678;2023-07-13T09:57:47;101055.63;;;28.82;36.64
30073;BME280;16897;52.422;13.678;2023-07-13T10:01:50;101054.19;;;28.80;36.83
30073;BME280;16897;52.422;13.678;2023-07-13T10:05:52;101063.28;;;28.79;36.43
30073;BME280;16897;52.422;13.678;2023-07-13T10:09:54;101064.25;;;28.71;36.16
30073;BME280;16897;52.422;13.678;2023-07-13T10:13:59;101058.97;;;28.56;36.32
30073;BME280;16897;52.422;13.678;2023-07-13T10:18:00;101066.78;;;28.51;36.36
30073;BME280;16897;52.422;13.678;2023-07-13T10:22:27;101068.06;;;28.55;36.18
30073;BME280;16897;52.422;13.678;2023-07-13T10:26:31;101072.59;;;28.55;36.28
30073;BME280;16897;52.422;13.678;2023-07-13T10:30:35;101062.81;;;28.47;36.09
30073;BME280;16897;52.422;13.678;2023-07-13T10:34:40;101058.28;;;28.48;36.03
30073;BME280;16897;52.422;13.678;2023-07-13T10:38:46;101069.31;;;28.59;36.24
30073;BME280;16897;52.422;13.678;2023-07-13T10:42:50;101053.25;;;28.66;36.14
30073;BME280;16897;52.422;13.678;2023-07-13T10:51:03;101060.66;;;28.92;35.90
30073;BME280;16897;52.422;13.678;2023-07-13T10:55:05;101065.03;;;29.00;35.93
30073;BME280;16897;52.422;13.678;2023-07-13T10:59:27;101061.94;;;29.03;36.10
30073;BME280;16897;52.422;13.678;2023-07-13T11:03:30;101056.03;;;29.07;35.96
30073;BME280;16897;52.422;13.678;2023-07-13T11:07:32;101061.44;;;29.14;35.87
30073;BME280;16897;52.422;13.678;2023-07-13T11:11:52;101052.31;;;29.08;35.74
30073;BME280;16897;52.422;13.678;2023-07-13T11:15:57;101050.00;;;29.05;35.74
30073;BME280;16897;52.422;13.678;2023-07-13T11:28:17;101050.53;;;29.29;35.51
30073;BME280;16897;52.422;13.678;2023-07-13T11:32:30;101045.00;;;29.37;35.47
30073;BME280;16897;52.422;13.678;2023-07-13T11:36:36;101027.16;;;29.29;35.38
30073;BME280;16897;52.422;13.678;2023-07-13T11:40:40;101042.75;;;29.47;35.32
30073;BME280;16897;52.422;13.678;2023-07-13T11:44:50;101031.81;;;29.49;35.51
30073;BME280;16897;52.422;13.678;2023-07-13T11:48:52;101033.31;;;29.65;35.31
30073;BME280;16897;52.422;13.678;2023-07-13T11:52:54;101031.66;;;29.70;35.47
30073;BME280;16897;52.422;13.678;2023-07-13T11:57:02;101036.66;;;29.80;35.53
30073;BME280;16897;52.422;13.678;2023-07-13T12:01:15;101043.91;;;29.86;35.26
30073;BME280;16897;52.422;13.678;2023-07-13T12:05:30;101001.38;;;29.62;35.11
30073;BME280;16897;52.422;13.678;2023-07-13T12:09:33;101024.84;;;29.81;34.94
30073;BME280;16897;52.422;13.678;2023-07-13T12:13:37;101017.41;;;29.83;35.03
30073;BME280;16897;52.422;13.678;2023-07-13T12:17:40;101007.91;;;29.94;35.12
30073;BME280;16897;52.422;13.678;2023-07-13T12:21:42;101024.91;;;30.01;34.77
30073;BME280;16897;52.422;13.678;2023-07-13T12:25:45;101028.22;;;30.10;34.90
30073;BME280;16897;52.422;13.678;2023-07-13T12:30:01;101011.44;;;30.14;34.90
30073;BME280;16897;52.422;13.678;2023-07-13T12:34:14;101010.81;;;30.19;34.79
30073;BME280;16897;52.422;13.678;2023-07-13T12:38:16;101022.44;;;30.26;34.62
30073;BME280;16897;52.422;13.678;2023-07-13T12:42:28;101010.63;;;30.27;34.35
30073;BME280;16897;52.422;13.678;2023-07-13T12:46:30;101029.47;;;30.40;34.27
30073;BME280;16897;52.422;13.678;2023-07-13T12:50:45;100995.50;;;30.26;34.19
30073;BME280;16897;52.422;13.678;2023-07-13T12:54:55;101012.91;;;30.43;34.17
30073;BME280;16897;52.422;13.678;2023-07-13T12:59:01;101017.06;;;30.39;34.13
30073;BME280;16897;52.422;13.678;2023-07-13T13:03:15;101019.13;;;30.37;34.02
30073;BME280;16897;52.422;13.678;2023-07-13T13:07:20;101016.44;;;30.31;33.94
30073;BME280;16897;52.422;13.678;2023-07-13T13:11:23;101017.06;;;30.33;33.88
30073;BME280;16897;52.422;13.678;2023-07-13T13:15:24;100981.59;;;30.16;33.82
30073;BME280;16897;52.422;13.678;2023-07-13T13:19:28;101024.94;;;30.34;33.72
30073;BME280;16897;52.422;13.678;2023-07-13T13:23:29;101009.59;;;30.28;33.66
30073;BME280;16897;52.422;13.678;2023-07-13T13:27:31;101002.75;;;30.26;33.78
30073;BME280;16897;52.422;13.678;2023-07-13T13:31:33;101011.25;;;30.36;33.69
30073;BME280;16897;52.422;13.678;2023-07-13T13:35:34;101028.66;;;30.40;33.67
30073;BME280;16897;52.422;13.678;2023-07-13T13:39:37;101013.97;;;30.36;33.85
30073;BME280;16897;52.422;13.678;2023-07-13T13:43:41;101018.28;;;30.50;33.69
30073;BME280;16897;52.422;13.678;2023-07-13T13:47:43;101019.53;;;30.48;33.88
30073;BME280;16897;52.422;13.678;2023-07-13T13:51:45;101018.69;;;30.54;33.29
30073;BME280;16897;52.422;13.678;2023-07-13T13:55:47;101012.06;;;30.56;33.42
30073;BME280;16897;52.422;13.678;2023-07-13T13:59:48;101025.75;;;30.61;33.35
30073;BME280;16897;52.422;13.678;2023-07-13T14:03:50;101022.66;;;30.58;33.21
30073;BME280;16897;52.422;13.678;2023-07-13T14:07:55;101027.59;;;30.61;33.38
30073;BME280;16897;52.422;13.678;2023-07-13T14:11:58;101010.63;;;30.60;33.39
30073;BME280;16897;52.422;13.678;2023-07-13T14:15:59;101032.38;;;30.65;33.46
30073;BME280;16897;52.422;13.678;2023-07-13T14:20:01;101030.28;;;30.68;33.07
30073;BME280;16897;52.422;13.678;2023-07-13T14:24:06;101012.25;;;30.61;33.29
30073;BME280;16897;52.422;13.678;2023-07-13T14:28:25;101016.22;;;30.65;32.96
30073;BME280;16897;52.422;13.678;2023-07-13T14:32:27;101024.69;;;30.69;33.18
30073;BME280;16897;52.422;13.678;2023-07-13T14:36:40;101023.66;;;30.70;33.10
30073;BME280;16897;52.422;13.678;2023-07-13T14:40:46;101024.28;;;30.72;33.07
30073;BME280;16897;52.422;13.678;2023-07-13T14:44:47;101026.75;;;30.74;32.98
30073;BME280;16897;52.422;13.678;2023-07-13T14:48:49;101032.19;;;30.60;32.94
30073;BME280;16897;52.422;13.678;2023-07-13T14:52:50;101035.91;;;30.59;33.03
30073;BME280;16897;52.422;13.678;2023-07-13T14:56:52;101012.09;;;30.36;32.67
30073;BME280;16897;52.422;13.678;2023-07-13T15:00:54;101052.09;;;30.53;32.51
30073;BME280;16897;52.422;13.678;2023-07-13T15:04:59;101042.13;;;30.53;32.50
30073;BME280;16897;52.422;13.678;2023-07-13T15:09:01;101035.50;;;30.49;32.57
30073;BME280;16897;52.422;13.678;2023-07-13T15:13:15;101036.97;;;30.52;32.43
30073;BME280;16897;52.422;13.678;2023-07-13T15:17:46;101031.16;;;30.55;32.80
30073;BME280;16897;52.422;13.678;2023-07-13T15:21:49;101024.72;;;30.49;32.49
30073;BME280;16897;52.422;13.678;2023-07-13T15:25:51;101036.53;;;30.55;32.47
30073;BME280;16897;52.422;13.678;2023-07-13T15:29:53;101022.84;;;30.50;32.54
30073;BME280;16897;52.422;13.678;2023-07-13T15:33:57;101005.88;;;30.49;32.55
30073;BME280;16897;52.422;13.678;2023-07-13T15:37:58;101023.66;;;30.57;32.51
30073;BME280;16897;52.422;13.678;2023-07-13T15:42:00;101012.28;;;30.55;32.31
30073;BME280;16897;52.422;13.678;2023-07-13T15:46:02;101012.50;;;30.60;32.28
30073;BME280;16897;52.422;13.678;2023-07-13T15:50:04;101019.31;;;30.56;32.33
30073;BME280;16897;52.422;13.678;2023-07-13T15:54:08;101022.03;;;30.62;32.12
30073;BME280;16897;52.422;13.678;2023-07-13T15:58:12;101023.47;;;30.58;32.02
30073;BME280;16897;52.422;13.678;2023-07-13T16:02:19;101021.81;;;30.51;32.37
30073;BME280;16897;52.422;13.678;2023-07-13T16:06:32;101011.25;;;30.42;32.29
30073;BME280;16897;52.422;13.678;2023-07-13T16:10:36;101017.47;;;30.50;32.27
30073;BME280;16897;52.422;13.678;2023-07-13T16:14:42;101018.69;;;30.40;31.99
30073;BME280;16897;52.422;13.678;2023-07-13T16:18:44;101028.47;;;30.41;31.82
30073;BME280;16897;52.422;13.678;2023-07-13T16:22:46;101033.66;;;30.36;31.80
30073;BME280;16897;52.422;13.678;2023-07-13T16:26:49;101024.53;;;30.31;31.87
30073;BME280;16897;52.422;13.678;2023-07-13T16:30:51;101000.88;;;30.06;32.05
30073;BME280;16897;52.422;13.678;2023-07-13T16:34:53;101028.25;;;30.23;31.92
30073;BME280;16897;52.422;13.678;2023-07-13T16:38:55;101032.78;;;30.16;31.89
30073;BME280;16897;52.422;13.678;2023-07-13T16:42:57;101033.41;;;30.11;31.65
30073;BME280;16897;52.422;13.678;2023-07-13T16:46:59;101024.06;;;30.01;31.82
30073;BME280;16897;52.422;13.678;2023-07-13T16:51:02;101021.97;;;29.89;31.58
30073;BME280;16897;52.422;13.678;2023-07-13T16:55:10;101042.91;;;29.87;31.76
30073;BME280;16897;52.422;13.678;2023-07-13T16:59:15;101035.22;;;29.77;31.54
30073;BME280;16897;52.422;13.678;2023-07-13T17:03:18;101018.16;;;29.57;31.68
30073;BME280;16897;52.422;13.678;2023-07-13T17:07:19;101033.06;;;29.60;31.38
30073;BME280;16897;52.422;13.678;2023-07-13T17:11:24;101053.56;;;29.61;31.43
30073;BME280;16897;52.422;13.678;2023-07-13T17:15:27;101053.13;;;29.50;31.70
30073;BME280;16897;52.422;13.678;2023-07-13T17:19:30;101066.56;;;29.44;31.52
30073;BME280;16897;52.422;13.678;2023-07-13T17:23:32;101066.91;;;29.34;31.43
30073;BME280;16897;52.422;13.678;2023-07-13T17:27:36;101080.78;;;29.31;31.49
30073;BME280;16897;52.422;13.678;2023-07-13T17:31:38;101075.56;;;29.23;31.48
30073;BME280;16897;52.422;13.678;2023-07-13T17:35:39;101084.81;;;29.14;31.27
30073;BME280;16897;52.422;13.678;2023-07-13T17:39:42;101127.88;;;28.92;31.55
30073;BME280;16897;52.422;13.678;2023-07-13T17:43:44;101165.44;;;28.79;31.43
30073;BME280;16897;52.422;13.678;2023-07-13T17:47:46;101164.94;;;28.32;31.23
30073;BME280;16897;52.422;13.678;2023-07-13T17:51:54;101186.06;;;27.99;31.51
30073;BME280;16897;52.422;13.678;2023-07-13T17:55:55;101192.66;;;27.52;32.02
30073;BME280;16897;52.422;13.678;2023-07-13T17:59:56;101194.00;;;27.18;31.93
30073;BME280;16897;52.422;13.678;2023-07-13T18:03:59;101220.56;;;27.05;32.40
30073;BME280;16897;52.422;13.678;2023-07-13T18:08:02;101222.78;;;26.78;31.82
30073;BME280;16897;52.422;13.678;2023-07-13T18:12:09;101210.91;;;26.49;32.18
30073;BME280;16897;52.422;13.678;2023-07-13T18:16:24;101228.53;;;26.44;32.30
30073;BME280;16897;52.422;13.678;2023-07-13T18:20:27;101210.38;;;26.23;32.41
30073;BME280;16897;52.422;13.678;2023-07-13T18:24:29;101222.31;;;26.12;32.64
30073;BME280;16897;52.422;13.678;2023-07-13T18:28:32;101225.50;;;26.08;32.36
30073;BME280;16897;52.422;13.678;2023-07-13T18:32:33;101225.75;;;25.98;32.64
30073;BME280;16897;52.422;13.678;2023-07-13T18:36:35;101197.16;;;25.82;32.55
30073;BME280;16897;52.422;13.678;2023-07-13T18:40:38;101183.81;;;25.74;32.33
30073;BME280;16897;52.422;13.678;2023-07-13T18:44:40;101172.00;;;25.60;32.33
30073;BME280;16897;52.422;13.678;2023-07-13T18:48:41;101194.53;;;25.74;32.58
30073;BME280;16897;52.422;13.678;2023-07-13T18:52:43;101204.88;;;25.77;32.72
30073;BME280;16897;52.422;13.678;2023-07-13T18:56:45;101219.06;;;25.77;32.94
30073;BME280;16897;52.422;13.678;2023-07-13T19:00:49;101211.41;;;25.74;33.02
30073;BME280;16897;52.422;13.678;2023-07-13T19:04:52;101211.56;;;25.73;32.84
30073;BME280;16897;52.422;13.678;2023-07-13T19:08:54;101220.94;;;25.77;32.58
30073;BME280;16897;52.422;13.678;2023-07-13T19:12:58;101202.22;;;25.69;32.67
30073;BME280;16897;52.422;13.678;2023-07-13T19:17:01;101232.31;;;25.71;33.04
30073;BME280;16897;52.422;13.678;2023-07-13T19:21:48;101219.63;;;25.56;33.12
30073;BME280;16897;52.422;13.678;2023-07-13T19:25:30;101244.69;;;25.64;33.18
30073;BME280;16897;52.422;13.678;2023-07-13T19:29:32;101254.03;;;25.68;32.99
30073;BME280;16897;52.422;13.678;2023-07-13T19:33:37;101250.22;;;25.62;32.82
30073;BME280;16897;52.422;13.678;2023-07-13T19:37:38;101258.44;;;25.60;32.91
30073;BME280;16897;52.422;13.678;2023-07-13T19:41:40;101263.13;;;25.50;32.97
30073;BME280;16897;52.422;13.678;2023-07-13T19:45:42;101267.97;;;25.55;33.30
30073;BME280;16897;52.422;13.678;2023-07-13T19:49:43;101291.84;;;25.56;32.98
30073;BME280;16897;52.422;13.678;2023-07-13T19:53:45;101292.88;;;25.47;33.23
30073;BME280;16897;52.422;13.678;2023-07-13T19:57:48;101282.88;;;25.41;33.15
30073;BME280;16897;52.422;13.678;2023-07-13T20:01:50;101287.88;;;25.36;33.16
30073;BME280;16897;52.422;13.678;2023-07-13T20:05:51;101292.88;;;25.31;33.62
30073;BME280;16897;52.422;13.678;2023-07-13T20:09:54;101311.59;;;25.31;33.51
30073;BME280;16897;52.422;13.678;2023-07-13T20:13:55;101317.28;;;25.28;33.30
30073;BME280;16897;52.422;13.678;2023-07-13T20:17:58;101280.47;;;25.05;33.35
30073;BME280;16897;52.422;13.678;2023-07-13T20:22:08;101306.59;;;25.20;33.23
30073;BME280;16897;52.422;13.678;2023-07-13T20:26:11;101312.44;;;25.15;33.57
30073;BME280;16897;52.422;13.678;2023-07-13T20:30:12;101316.03;;;25.06;34.02
30073;BME280;16897;52.422;13.678;2023-07-13T20:34:21;101336.25;;;25.08;33.96
30073;BME280;16897;52.422;13.678;2023-07-13T20:38:23;101338.78;;;25.02;33.48
30073;BME280;16897;52.422;13.678;2023-07-13T20:42:24;101348.09;;;24.98;33.47
30073;BME280;16897;52.422;13.678;2023-07-13T20:46:26;101337.91;;;24.85;33.94
30073;BME280;16897;52.422;13.678;2023-07-13T20:50:28;101351.28;;;24.93;33.87
30073;BME280;16897;52.422;13.678;2023-07-13T20:54:30;101358.78;;;24.89;34.09
30073;BME280;16897;52.422;13.678;2023-07-13T20:58:31;101339.88;;;24.75;33.73
30073;BME280;16897;52.422;13.678;2023-07-13T21:02:33;101347.56;;;24.78;33.90
30073;BME280;16897;52.422;13.678;2023-07-13T21:06:35;101348.91;;;24.73;33.94
30073;BME280;16897;52.422;13.678;2023-07-13T21:10:37;101354.53;;;24.70;33.99
30073;BME280;16897;52.422;13.678;2023-07-13T21:14:39;101357.53;;;24.67;34.11
30073;BME280;16897;52.422;13.678;2023-07-13T21:18:41;101350.31;;;24.60;33.57
30073;BME280;16897;52.422;13.678;2023-07-13T21:22:42;101342.09;;;24.45;33.82